Wellton, AZ (85356)

9:56 PM MST on January 29, 2015 (GMT -0700)
WMIDD-Wellton | Change Station
CLOSE
Current Station
Personal Weather Station
Location: Wellton, AZ
Elevation: 285 ft
Nearby Weather Stations

Elev 285 ft 32.68 °N, 114.11 °W | Updated 4 minutes ago

Overcast
Overcast
61.9 °F
Feels Like 61.9 °F
N
4.3
Wind Variable Wind from ENE
Gusts 4.3 mph

Today
High -- | Low -- °F
--% Chance of Precip.
Yesterday
High -- | Low -- °F
Precip. -- in
7:33 AM 6:06 PM
Waxing Gibbous, 80% visible
Pressure 29.99 in
Visibility 10.0 miles
Clouds Mostly Cloudy 10000 ft
Overcast 18000 ft
Dew Point 56 °F
Humidity 82%
Rainfall 0.00 in
Snow Depth Not available.
UV 0 out of 12
Pollen 5.70 out of 12
Air Quality Not available.
Flu Activity Not available.
METAR KNYL 300357Z 00000KT 10SM BKN100 OVC180 19/09 A2999 RMK AO2 SLP153 T01940094

More Conditions Fewer Conditions

Pressure 29.99 in
Visibility 10.0 miles
Clouds Mostly Cloudy 10000 ft
Overcast 18000 ft
Dew Point 56 °F
Humidity 82%
Rainfall 0.00 in
Snow Depth Not available.
UV 0 out of 12
Pollen 5.70 out of 12
Air Quality Not available.
Flu Activity Not available.
METAR KNYL 300357Z 00000KT 10SM BKN100 OVC180 19/09 A2999 RMK AO2 SLP153 T01940094

More Conditions Fewer Conditions

10-Day Weather Forecast

Almanac

Astronomy

Jan. 29, 2015 Rise Set
Actual Time
Civil Twilight
Nautical Twilight
Astronomical Twilight
Moon
Length of Visible Light
Length of Day
Tomorrow will be .
, % of the Moon is Illuminated

Today's Extremes

State Highs State Lows

Community

WunderPhotos

Upload Photos

1,791,712 photos uploaded!

WunderBlogs® & News

Nearby

Air Quality

  Air Quality AQ Index Pollutant
Not available.

Snow Depth

Station Depth Elevation

Earthquake Activity

City Distance Mag. Time & Date
Minimum magnitude displayed is 2.5.

Coastal Water Temperatures

Place Temperature

Nearby Weather Stations